createdAt,value
2022-08-25T00:01:35.196Z,5.93
2022-08-25T00:04:06.392Z,6.55
2022-08-25T00:06:33.140Z,5.85
2022-08-25T00:08:59.461Z,6.25
2022-08-25T00:11:29.891Z,5.85
2022-08-25T00:13:59.920Z,6.22
2022-08-25T00:16:26.918Z,6.15
2022-08-25T00:18:57.025Z,6.25
2022-08-25T00:21:24.133Z,6.30
2022-08-25T00:23:51.053Z,6.68
2022-08-25T00:26:17.886Z,5.50
2022-08-25T00:28:44.647Z,5.97
2022-08-25T00:31:15.788Z,6.18
2022-08-25T00:33:43.663Z,6.20
2022-08-25T00:36:10.300Z,5.80
2022-08-25T00:38:36.616Z,6.65
2022-08-25T00:41:03.948Z,6.25
2022-08-25T00:43:42.560Z,6.43
2022-08-25T00:46:10.340Z,5.68
2022-08-25T00:48:38.923Z,6.45
2022-08-25T00:51:09.553Z,7.28
2022-08-25T00:53:35.995Z,6.30
2022-08-25T00:56:02.595Z,6.85
2022-08-25T00:58:29.490Z,6.88
2022-08-25T01:00:56.794Z,7.30
2022-08-25T01:03:33.212Z,6.75
2022-08-25T01:06:03.802Z,6.65
2022-08-25T01:08:32.384Z,6.38
2022-08-25T01:11:02.518Z,6.82
2022-08-25T01:13:43.327Z,7.43
2022-08-25T01:16:10.285Z,6.47
2022-08-25T01:18:52.886Z,7.22
2022-08-25T01:21:21.300Z,7.20
2022-08-25T01:23:49.508Z,7.55
2022-08-25T01:26:21.252Z,7.00
2022-08-25T01:28:57.900Z,6.70
2022-08-25T01:31:24.551Z,7.93
2022-08-25T01:33:51.085Z,7.65
2022-08-25T01:36:22.605Z,7.00
2022-08-25T01:38:50.040Z,6.70
2022-08-25T01:41:25.610Z,7.65
2022-08-25T01:43:52.317Z,7.97
2022-08-25T01:46:18.764Z,7.80
2022-08-25T01:48:45.139Z,8.77
2022-08-25T01:51:11.503Z,8.02
2022-08-25T01:53:37.970Z,7.28
2022-08-25T01:56:12.824Z,7.70
2022-08-25T01:58:42.943Z,7.88
2022-08-25T02:01:17.257Z,8.20
2022-08-25T02:03:46.560Z,7.72
2022-08-25T02:06:18.946Z,7.93
2022-08-25T02:08:45.355Z,7.60
2022-08-25T02:11:14.271Z,7.40
2022-08-25T02:13:42.118Z,7.97
2022-08-25T02:16:14.554Z,8.02
2022-08-25T02:18:40.895Z,9.03
2022-08-25T02:21:07.266Z,8.60
2022-08-25T02:23:33.623Z,9.00
2022-08-25T02:25:59.924Z,8.25
2022-08-25T02:28:26.316Z,8.90
2022-08-25T02:30:52.983Z,8.57
2022-08-25T02:33:27.491Z,8.65
2022-08-25T02:35:57.677Z,8.55
2022-08-25T02:38:24.027Z,10.23
2022-08-25T02:40:50.448Z,9.02
2022-08-25T02:43:16.799Z,8.57
2022-08-25T02:45:43.140Z,9.48
2022-08-25T02:48:09.884Z,9.85
2022-08-25T02:50:36.210Z,9.27
2022-08-25T02:53:02.544Z,8.45
2022-08-25T02:55:29.263Z,8.75
2022-08-25T02:57:55.631Z,8.45
2022-08-25T03:00:22.084Z,9.02
2022-08-25T03:02:49.604Z,9.13
2022-08-25T03:05:16.585Z,10.18
2022-08-25T03:07:42.970Z,9.07
2022-08-25T03:10:14.831Z,10.23
2022-08-25T03:12:41.238Z,8.88
2022-08-25T03:15:13.264Z,10.05
2022-08-25T03:17:39.941Z,8.95
2022-08-25T03:20:07.834Z,10.27
2022-08-25T03:22:34.139Z,9.48
2022-08-25T03:25:01.751Z,9.25
2022-08-25T03:27:29.380Z,9.60
2022-08-25T03:29:55.740Z,9.13
2022-08-25T03:32:22.061Z,9.52
2022-08-25T03:34:48.360Z,9.70
2022-08-25T03:37:14.795Z,10.40
2022-08-25T03:39:41.154Z,10.38
2022-08-25T03:42:07.530Z,10.52
2022-08-25T03:44:33.928Z,11.25
2022-08-25T03:47:00.252Z,11.38
2022-08-25T03:49:26.564Z,9.82
2022-08-25T03:51:53.723Z,10.68
2022-08-25T03:54:23.648Z,12.48
2022-08-25T03:56:49.987Z,11.55
2022-08-25T03:59:18.042Z,11.00
2022-08-25T04:01:47.713Z,11.73
2022-08-25T04:04:16.640Z,11.55
2022-08-25T04:06:44.352Z,10.98
2022-08-25T04:09:11.461Z,11.55
2022-08-25T04:11:38.433Z,11.65
2022-08-25T04:14:04.887Z,11.20
2022-08-25T04:16:34.482Z,11.05
2022-08-25T04:19:02.683Z,11.10
2022-08-25T04:21:29.152Z,12.75
2022-08-25T04:23:56.315Z,11.55
2022-08-25T04:26:29.905Z,12.25
2022-08-25T04:28:57.502Z,12.55
2022-08-25T04:31:23.933Z,12.88
2022-08-25T04:33:50.636Z,12.57
2022-08-25T04:36:18.800Z,11.77
2022-08-25T04:38:46.570Z,12.15
2022-08-25T04:41:14.914Z,13.32
2022-08-25T04:43:42.482Z,13.00
2022-08-25T04:46:19.469Z,12.73
2022-08-25T04:48:48.192Z,12.63
2022-08-25T04:51:18.346Z,12.73
2022-08-25T04:53:44.790Z,12.60
2022-08-25T04:56:16.248Z,13.32
2022-08-25T04:58:42.796Z,15.20
2022-08-25T05:01:12.658Z,12.95
2022-08-25T05:03:39.163Z,14.63
2022-08-25T05:06:06.164Z,12.38
2022-08-25T05:08:35.215Z,14.43
2022-08-25T05:11:09.861Z,14.75
2022-08-25T05:13:36.836Z,14.55
2022-08-25T05:16:03.838Z,13.68
2022-08-25T05:18:32.519Z,14.75
2022-08-25T05:21:03.475Z,15.10
2022-08-25T05:23:30.000Z,14.32
2022-08-25T05:26:03.203Z,14.55
2022-08-25T05:28:29.673Z,15.15
2022-08-25T05:31:01.832Z,14.90
2022-08-25T05:33:30.578Z,13.63
2022-08-25T05:35:59.592Z,15.02
2022-08-25T05:38:26.396Z,15.07
2022-08-25T05:40:57.354Z,15.63
2022-08-25T05:43:23.707Z,15.93
2022-08-25T05:45:50.233Z,16.27
2022-08-25T05:48:16.579Z,15.65
2022-08-25T05:50:51.301Z,16.20
2022-08-25T05:53:17.618Z,15.23
2022-08-25T05:55:45.019Z,15.52
2022-08-25T05:58:11.339Z,16.05
2022-08-25T06:00:41.296Z,15.23
2022-08-25T06:03:07.707Z,14.95
2022-08-25T06:05:34.290Z,16.60
2022-08-25T06:08:00.634Z,14.88
2022-08-25T06:10:27.494Z,17.77
2022-08-25T06:12:54.000Z,15.85
2022-08-25T06:15:25.345Z,15.93
2022-08-25T06:17:52.459Z,16.15
2022-08-25T06:20:22.168Z,16.23
2022-08-25T06:22:52.213Z,15.80
2022-08-25T06:25:22.025Z,15.30
2022-08-25T06:27:49.114Z,15.68
2022-08-25T06:30:23.726Z,15.27
2022-08-25T06:32:50.954Z,15.15
2022-08-25T06:35:18.882Z,15.38
2022-08-25T06:37:46.084Z,15.38
2022-08-25T06:40:14.520Z,15.50
2022-08-25T06:42:41.188Z,15.45
2022-08-25T06:45:08.450Z,15.25
2022-08-25T06:47:34.985Z,18.33
2022-08-25T06:50:01.473Z,17.58
2022-08-25T06:52:27.917Z,17.30
2022-08-25T06:54:55.795Z,17.92
2022-08-25T06:57:22.137Z,16.50
2022-08-25T06:59:48.487Z,17.92
2022-08-25T07:02:22.309Z,18.30
2022-08-25T07:04:49.288Z,17.65
2022-08-25T07:07:15.602Z,18.17
2022-08-25T07:09:41.930Z,19.15
2022-08-25T07:12:08.452Z,15.85
2022-08-25T07:14:34.829Z,17.48
2022-08-25T07:17:03.066Z,17.55
2022-08-25T07:19:37.172Z,17.98
2022-08-25T07:22:03.534Z,16.02
2022-08-25T07:24:29.879Z,18.10
2022-08-25T07:26:56.223Z,17.23
2022-08-25T07:29:32.051Z,18.63
2022-08-25T07:32:00.645Z,18.35
2022-08-25T07:34:27.010Z,18.30
2022-08-25T07:36:56.168Z,16.92
2022-08-25T07:39:23.772Z,15.43
2022-08-25T07:41:51.987Z,16.20
2022-08-25T07:44:20.575Z,14.60
2022-08-25T07:46:46.991Z,15.13
2022-08-25T07:49:16.684Z,13.98
2022-08-25T07:52:05.050Z,13.90
2022-08-25T07:54:33.977Z,15.27
2022-08-25T07:57:04.710Z,15.18
2022-08-25T07:59:39.311Z,14.35
2022-08-25T08:02:18.362Z,13.93
2022-08-25T08:04:50.446Z,13.63
2022-08-25T08:07:41.919Z,14.38
2022-08-25T08:10:42.465Z,14.57
2022-08-25T08:12:58.624Z,14.50
2022-08-25T08:15:24.974Z,14.13
2022-08-25T08:17:54.768Z,13.90
2022-08-25T08:20:23.479Z,14.95
2022-08-25T08:22:50.279Z,14.40
2022-08-25T08:25:18.834Z,14.50
2022-08-25T08:27:49.343Z,14.82
2022-08-25T08:30:16.485Z,15.63
2022-08-25T08:33:08.103Z,14.32
2022-08-25T08:35:29.151Z,15.32
2022-08-25T08:37:55.583Z,13.07
2022-08-25T08:40:22.065Z,13.15
2022-08-25T08:43:18.504Z,14.98
2022-08-25T08:45:51.748Z,13.30
2022-08-25T08:48:35.925Z,14.70
2022-08-25T08:51:20.439Z,14.25
2022-08-25T08:54:04.235Z,13.88
2022-08-25T08:56:45.228Z,12.40
2022-08-25T08:59:30.276Z,13.25
2022-08-25T09:02:02.737Z,12.05
2022-08-25T09:04:59.053Z,11.90
2022-08-25T09:07:35.599Z,12.23
2022-08-25T09:10:02.309Z,11.63
2022-08-25T09:13:01.503Z,12.88
2022-08-25T09:15:54.644Z,12.18
2022-08-25T09:18:41.050Z,12.00
2022-08-25T09:21:19.879Z,12.05
2022-08-25T09:24:12.631Z,12.10
2022-08-25T09:27:03.782Z,12.52
2022-08-25T09:29:47.936Z,11.52
2022-08-25T09:32:16.828Z,11.98
2022-08-25T09:34:52.497Z,11.07
2022-08-25T09:37:18.839Z,11.02
2022-08-25T09:39:46.715Z,11.15
2022-08-25T09:42:13.697Z,10.40
2022-08-25T09:44:43.171Z,11.68
2022-08-25T09:47:18.631Z,11.70
2022-08-25T09:49:48.090Z,10.90
2022-08-25T09:52:37.427Z,10.88
2022-08-25T09:55:13.297Z,10.52
2022-08-25T09:57:47.608Z,10.32
2022-08-25T10:00:19.730Z,10.98
2022-08-25T10:03:06.038Z,9.38
2022-08-25T10:05:35.449Z,11.15
2022-08-25T10:08:11.084Z,9.77
2022-08-25T10:10:45.838Z,9.77
2022-08-25T10:13:22.961Z,10.23
2022-08-25T10:16:18.046Z,9.80
2022-08-25T10:19:00.986Z,9.90
2022-08-25T10:21:27.303Z,9.75
2022-08-25T10:23:54.296Z,10.63
2022-08-25T10:26:41.685Z,9.18
2022-08-25T10:29:30.618Z,9.75
2022-08-25T10:32:14.186Z,9.98
2022-08-25T10:34:55.754Z,10.48
2022-08-25T10:37:55.135Z,10.07
2022-08-25T10:40:32.198Z,10.30
2022-08-25T10:43:10.879Z,11.50
2022-08-25T10:45:47.081Z,10.13
2022-08-25T10:48:30.881Z,10.60
2022-08-25T10:51:09.662Z,11.65
2022-08-25T10:53:52.225Z,11.52
2022-08-25T10:56:27.452Z,10.88
2022-08-25T10:59:27.862Z,11.25
2022-08-25T11:02:42.163Z,10.93
2022-08-25T11:05:27.032Z,11.80
2022-08-25T11:08:23.707Z,10.45
2022-08-25T11:11:00.596Z,10.57
2022-08-25T11:13:41.377Z,11.38
2022-08-25T11:16:19.282Z,11.02
2022-08-25T11:18:55.409Z,10.40
2022-08-25T11:21:43.830Z,10.38
2022-08-25T11:24:36.605Z,11.20
2022-08-25T11:27:07.553Z,11.10
2022-08-25T11:29:37.747Z,10.90
2022-08-25T11:32:06.326Z,11.45
2022-08-25T11:34:36.128Z,10.80
2022-08-25T11:37:24.396Z,11.07
2022-08-25T11:39:59.917Z,10.32
2022-08-25T11:42:44.352Z,12.27
2022-08-25T11:45:47.467Z,11.43
2022-08-25T11:48:52.734Z,10.88
2022-08-25T11:51:36.516Z,10.77
2022-08-25T11:54:16.989Z,10.30
2022-08-25T11:56:53.028Z,10.35
2022-08-25T11:59:50.294Z,10.27
2022-08-25T12:02:43.697Z,10.20
2022-08-25T12:05:19.451Z,9.20
2022-08-25T12:08:05.849Z,8.68
2022-08-25T12:10:51.823Z,9.70
2022-08-25T12:13:38.689Z,9.50
2022-08-25T12:16:05.961Z,9.38
2022-08-25T12:18:32.217Z,9.00
2022-08-25T12:20:58.478Z,10.13
2022-08-25T12:23:35.198Z,9.32
2022-08-25T12:26:11.899Z,9.75
2022-08-25T12:28:47.670Z,9.40
2022-08-25T12:31:46.222Z,8.93
2022-08-25T12:34:30.925Z,8.60
2022-08-25T12:37:18.644Z,9.85
2022-08-25T12:39:54.502Z,9.25
2022-08-25T12:42:37.002Z,9.15
2022-08-25T12:45:16.067Z,8.27
2022-08-25T12:47:44.970Z,9.80
2022-08-25T12:50:35.223Z,9.45
2022-08-25T12:53:27.971Z,9.43
2022-08-25T12:56:04.914Z,7.95
2022-08-25T12:59:02.010Z,9.07
2022-08-25T13:02:06.998Z,8.27
2022-08-25T13:04:43.490Z,8.88
2022-08-25T13:07:24.465Z,8.13
2022-08-25T13:10:18.316Z,7.60
2022-08-25T13:12:58.308Z,8.63
2022-08-25T13:15:27.520Z,8.32
2022-08-25T13:17:53.846Z,8.65
2022-08-25T13:20:25.367Z,8.27
2022-08-25T13:22:57.884Z,9.07
2022-08-25T13:25:31.932Z,7.68
2022-08-25T13:28:02.789Z,8.60
2022-08-25T13:30:35.332Z,7.55
2022-08-25T13:33:23.075Z,8.35
2022-08-25T13:35:52.546Z,8.13
2022-08-25T13:38:19.501Z,7.57
2022-08-25T13:40:46.384Z,7.53
2022-08-25T13:43:15.037Z,7.70
2022-08-25T13:45:44.921Z,7.43
2022-08-25T13:48:22.673Z,7.50
2022-08-25T13:50:51.681Z,8.00
2022-08-25T13:53:24.738Z,7.28
2022-08-25T13:55:56.948Z,8.07
2022-08-25T13:58:44.817Z,7.93
2022-08-25T14:01:47.741Z,7.80
2022-08-25T14:04:29.900Z,7.43
2022-08-25T14:07:14.018Z,8.13
2022-08-25T14:09:51.350Z,7.28
2022-08-25T14:12:36.944Z,8.05
2022-08-25T14:15:27.292Z,8.18
2022-08-25T14:18:08.408Z,7.88
2022-08-25T14:20:37.099Z,8.05
2022-08-25T14:23:10.373Z,7.93
2022-08-25T14:25:37.265Z,7.32
2022-08-25T14:28:16.083Z,7.90
2022-08-25T14:30:47.084Z,7.43
2022-08-25T14:33:14.988Z,7.85
2022-08-25T14:35:44.385Z,7.32
2022-08-25T14:38:11.700Z,7.97
2022-08-25T14:40:39.149Z,8.02
2022-08-25T14:43:07.447Z,7.75
2022-08-25T14:45:39.231Z,7.20
2022-08-25T14:48:10.619Z,7.15
2022-08-25T14:50:38.374Z,7.35
2022-08-25T14:53:10.532Z,8.00
2022-08-25T14:55:36.970Z,7.38
2022-08-25T14:58:03.416Z,7.40
2022-08-25T15:00:37.050Z,8.15
2022-08-25T15:03:03.784Z,8.10
2022-08-25T15:05:30.123Z,7.68
2022-08-25T15:07:57.317Z,7.68
2022-08-25T15:10:23.649Z,7.75
2022-08-25T15:12:51.210Z,7.50
2022-08-25T15:15:21.253Z,7.28
2022-08-25T15:17:49.463Z,7.97
2022-08-25T15:20:17.186Z,7.65
2022-08-25T15:22:43.623Z,7.40
2022-08-25T15:25:10.286Z,7.78
2022-08-25T15:27:37.266Z,8.05
2022-08-25T15:30:05.401Z,7.00
2022-08-25T15:32:31.875Z,7.00
2022-08-25T15:34:58.228Z,8.23
2022-08-25T15:37:24.757Z,7.75
2022-08-25T15:39:51.921Z,8.27
2022-08-25T15:42:18.551Z,7.72
2022-08-25T15:44:53.376Z,7.72
2022-08-25T15:47:20.456Z,8.07
2022-08-25T15:49:47.152Z,7.28
2022-08-25T15:52:13.478Z,7.55
2022-08-25T15:54:39.882Z,7.55
2022-08-25T15:57:08.762Z,7.88
2022-08-25T15:59:35.888Z,7.35
2022-08-25T16:02:14.788Z,6.82
2022-08-25T16:04:41.698Z,7.93
2022-08-25T16:07:09.241Z,7.72
2022-08-25T16:09:40.475Z,7.30
2022-08-25T16:12:08.482Z,7.32
2022-08-25T16:14:35.700Z,7.65
2022-08-25T16:17:02.028Z,7.03
2022-08-25T16:19:28.899Z,8.00
2022-08-25T16:21:55.496Z,7.20
2022-08-25T16:24:21.821Z,7.78
2022-08-25T16:26:48.848Z,7.25
2022-08-25T16:29:15.585Z,7.80
2022-08-25T16:31:43.175Z,7.10
2022-08-25T16:34:09.602Z,7.55
2022-08-25T16:36:38.007Z,7.80
2022-08-25T16:39:04.878Z,8.07
2022-08-25T16:41:36.448Z,7.72
2022-08-25T16:44:04.837Z,6.82
2022-08-25T16:46:31.177Z,6.82
2022-08-25T16:49:01.652Z,7.38
2022-08-25T16:51:29.585Z,7.32
2022-08-25T16:53:57.093Z,8.00
2022-08-25T16:56:23.443Z,8.05
2022-08-25T16:58:53.467Z,7.30
2022-08-25T17:01:20.148Z,7.20
2022-08-25T17:03:46.684Z,7.00
2022-08-25T17:06:13.086Z,7.63
2022-08-25T17:08:40.556Z,7.82
2022-08-25T17:11:15.736Z,8.23
2022-08-25T17:13:45.694Z,7.78
2022-08-25T17:16:14.618Z,7.10
2022-08-25T17:18:42.194Z,8.02
2022-08-25T17:21:19.478Z,8.07
2022-08-25T17:23:51.328Z,7.70
2022-08-25T17:26:17.922Z,7.28
2022-08-25T17:28:44.228Z,7.00
2022-08-25T17:31:12.644Z,8.10
2022-08-25T17:33:39.042Z,7.55
2022-08-25T17:36:06.652Z,7.00
2022-08-25T17:38:33.986Z,7.65
2022-08-25T17:41:02.930Z,8.05
2022-08-25T17:43:33.618Z,7.78
2022-08-25T17:46:00.027Z,7.18
2022-08-25T17:48:27.877Z,7.28
2022-08-25T17:50:55.360Z,7.80
2022-08-25T17:53:21.813Z,7.65
2022-08-25T17:56:06.854Z,7.68
2022-08-25T17:58:33.471Z,7.75
2022-08-25T18:00:59.872Z,7.95
2022-08-25T18:03:27.297Z,8.20
2022-08-25T18:05:53.963Z,7.57
2022-08-25T18:08:20.371Z,7.68
2022-08-25T18:10:58.817Z,7.53
2022-08-25T18:13:25.141Z,8.05
2022-08-25T18:15:51.464Z,7.72
2022-08-25T18:18:17.993Z,6.82
2022-08-25T18:20:45.884Z,8.30
2022-08-25T18:23:13.370Z,8.35
2022-08-25T18:25:41.639Z,8.93
2022-08-25T18:28:08.920Z,7.57
2022-08-25T18:30:36.291Z,6.97
2022-08-25T18:33:02.699Z,7.18
2022-08-25T18:35:29.693Z,8.07
2022-08-25T18:37:56.062Z,8.63
2022-08-25T18:40:22.981Z,9.35
2022-08-25T18:42:54.323Z,9.00
2022-08-25T18:45:25.538Z,7.32
2022-08-25T18:47:53.365Z,8.57
2022-08-25T18:50:20.491Z,8.73
2022-08-25T18:52:46.832Z,8.32
2022-08-25T18:55:13.492Z,8.70
2022-08-25T18:57:41.734Z,8.95
2022-08-25T19:00:11.513Z,9.30
2022-08-25T19:02:38.015Z,9.07
2022-08-25T19:05:07.557Z,8.15
2022-08-25T19:07:36.874Z,9.18
2022-08-25T19:10:06.879Z,8.95
2022-08-25T19:12:33.661Z,9.07
2022-08-25T19:15:04.694Z,8.63
2022-08-25T19:17:37.530Z,8.15
2022-08-25T19:20:11.294Z,8.40
2022-08-25T19:22:42.068Z,9.10
2022-08-25T19:25:10.107Z,9.27
2022-08-25T19:27:36.806Z,8.10
2022-08-25T19:30:06.525Z,8.45
2022-08-25T19:32:33.129Z,9.07
2022-08-25T19:34:59.476Z,8.80
2022-08-25T19:37:28.419Z,9.30
2022-08-25T19:39:55.308Z,8.75
2022-08-25T19:42:37.224Z,9.23
2022-08-25T19:45:11.349Z,8.77
2022-08-25T19:50:05.929Z,9.65
2022-08-25T19:52:32.616Z,9.07
2022-08-25T19:54:58.946Z,8.50
2022-08-25T19:57:28.266Z,9.20
2022-08-25T20:02:36.749Z,8.55
2022-08-25T20:05:04.621Z,9.80
2022-08-25T20:07:32.683Z,8.48
2022-08-25T20:10:00.506Z,9.13
2022-08-25T20:12:28.544Z,9.50
2022-08-25T20:14:55.451Z,9.00
2022-08-25T20:17:24.670Z,9.57
2022-08-25T20:19:55.383Z,9.05
2022-08-25T20:22:26.104Z,8.77
2022-08-25T20:24:55.800Z,10.43
2022-08-25T20:27:27.976Z,9.57
2022-08-25T20:29:54.308Z,9.50
2022-08-25T20:32:20.683Z,9.38
2022-08-25T20:34:48.031Z,9.02
2022-08-25T20:37:14.726Z,9.25
2022-08-25T20:39:41.356Z,9.13
2022-08-25T20:42:08.207Z,9.75
2022-08-25T20:44:41.784Z,8.45
2022-08-25T20:47:10.503Z,9.15
2022-08-25T20:49:38.000Z,9.65
2022-08-25T20:52:05.117Z,9.10
2022-08-25T20:54:31.621Z,9.27
2022-08-25T20:56:58.879Z,9.95
2022-08-25T20:59:27.273Z,9.60
2022-08-25T21:01:55.244Z,9.10
2022-08-25T21:04:24.443Z,10.65
2022-08-25T21:06:50.847Z,9.73
2022-08-25T21:09:20.033Z,10.13
2022-08-25T21:11:47.688Z,8.98
2022-08-25T21:14:14.369Z,9.90
2022-08-25T21:16:42.784Z,9.65
2022-08-25T21:19:11.087Z,9.15
2022-08-25T21:21:38.582Z,10.25
2022-08-25T21:24:09.789Z,9.05
2022-08-25T21:26:37.709Z,9.15
2022-08-25T21:29:16.356Z,9.73
2022-08-25T21:31:42.774Z,9.60
2022-08-25T21:34:10.876Z,9.90
2022-08-25T21:36:39.285Z,9.30
2022-08-25T21:39:05.975Z,9.95
2022-08-25T21:41:33.961Z,9.52
2022-08-25T21:44:01.373Z,9.60
2022-08-25T21:46:30.399Z,10.07
2022-08-25T21:48:58.875Z,10.52
2022-08-25T21:51:29.571Z,10.00
2022-08-25T21:53:56.856Z,10.65
2022-08-25T21:56:23.172Z,9.82
2022-08-25T21:58:52.737Z,9.60
2022-08-25T22:01:20.179Z,10.60
2022-08-25T22:03:47.362Z,10.57
2022-08-25T22:06:14.892Z,9.85
2022-08-25T22:08:43.015Z,9.82
2022-08-25T22:11:10.414Z,10.30
2022-08-25T22:13:38.285Z,10.02
2022-08-25T22:16:07.680Z,9.50
2022-08-25T22:18:34.678Z,10.05
2022-08-25T22:21:01.186Z,9.93
2022-08-25T22:23:44.663Z,10.10
2022-08-25T22:26:12.700Z,9.55
2022-08-25T22:28:39.673Z,9.45
2022-08-25T22:31:10.544Z,10.32
2022-08-25T22:33:37.009Z,10.18
2022-08-25T22:36:23.228Z,10.60
2022-08-25T22:38:54.131Z,9.85
2022-08-25T22:41:21.922Z,9.75
2022-08-25T22:43:49.527Z,10.30
2022-08-25T22:46:19.206Z,10.85
2022-08-25T22:48:46.201Z,10.27
2022-08-25T22:51:15.530Z,10.13
2022-08-25T22:53:43.793Z,10.95
2022-08-25T22:56:12.091Z,10.43
2022-08-25T22:58:39.248Z,11.15
2022-08-25T23:01:17.448Z,10.70
2022-08-25T23:03:45.076Z,10.00
2022-08-25T23:06:25.044Z,9.60
2022-08-25T23:08:53.921Z,9.60
2022-08-25T23:11:21.845Z,12.10
2022-08-25T23:13:48.499Z,10.70
2022-08-25T23:16:15.592Z,11.23
2022-08-25T23:18:43.926Z,11.00
2022-08-25T23:21:11.398Z,10.55
2022-08-25T23:23:37.710Z,11.18
2022-08-25T23:26:04.461Z,11.00
2022-08-25T23:28:31.080Z,11.20
2022-08-25T23:30:59.271Z,9.55
2022-08-25T23:33:26.366Z,9.55
2022-08-25T23:36:00.923Z,10.55
2022-08-25T23:38:27.276Z,10.77
2022-08-25T23:40:54.614Z,11.48
2022-08-25T23:43:21.447Z,10.25
2022-08-25T23:45:48.174Z,10.23
2022-08-25T23:48:14.891Z,11.00
2022-08-25T23:50:47.204Z,11.48
2022-08-25T23:53:20.503Z,10.32
2022-08-25T23:55:53.015Z,10.07
2022-08-25T23:58:20.247Z,10.95
